Meath Environmental Platform

Observations for Trim Market St

Time AQI Temp °C Hum % Pres Pa CO μg/m³ H₂S μg/m³ NO μg/m³ NO₂ μg/m³ O₃ μg/m³ SO₂ μg/m³ PM1 μg/m³ PM2.5 μg/m³ PM10 μg/m³
Tuesday 14 July 2026
04:13 1 16.6 74 45,232 0.14 0 0 5.13 22.41 0 2.14 3.81 8.13
04:12 1 16.6 74 45,541 0.13 0 0 5.63 21.96 0 2.85 3.81 7.53
04:11 1 16.6 74 45,953 0.13 0 0 6.44 21.01 0 1.43 3.34 6.33
04:10 1 16.6 74 46,285 0.12 0 0 5.14 20.17 0 2.85 3.82 6.93
04:09 1 16.6 74 46,662 0.14 0 0 5.44 19.35 0 1.43 3.82 6.93
04:06 1 16.6 74 47,296 0.14 0 0 4.76 18.58 0 2.14 2.86 5.12
04:04 1 16.6 74 47,601 0.12 0 0 3.67 23.16 0 2.14 3.83 6.32
04:02 1 16.6 74 47,715 0.12 0 3.11 3.88 18.95 0 1.43 3.83 7.53
04:01 1 16.6 74 47,972 0.13 0 0.36 12.99 20.11 0 3.56 4.8 8.13
03:57 1 16.7 74 48,764 0.12 0 0 5.07 18.37 0 1.43 3.36 5.72
03:52 1 16.7 74 49,375 0.12 0 0 7.6 18.17 0 4.28 5.29 9.35
03:47 1 16.7 73 49,934 0.11 0 0 6.52 17.84 0 2.14 3.86 6.32
03:46 1 16.7 73 50,167 0.13 0 0 4.92 19.97 0 2.14 3.86 6.32
03:45 1 16.7 73 50,240 0.11 0 0 4.63 20.49 0 2.14 3.38 5.71
03:44 1 16.7 73 50,309 0.12 0 0 5.53 20.36 0 1.43 2.9 6.31
03:43 1 16.7 73 50,388 0.11 0 0 4.73 21.43 0 2.14 3.38 6.92
03:42 1 16.7 73 50,468 0.12 0 0 5.24 20.56 0 2.85 3.87 6.92
03:41 1 16.7 73 50,613 0.12 0 0 4.54 19.57 0 2.14 3.39 5.71
03:40 1 16.7 73 50,739 0.12 0 0 6.74 20.81 0 2.85 4.35 7.53
03:39 1 16.7 73 50,853 0.12 0 0.01 4.74 19.62 0 3.56 5.8 9.36